sensor_id;sensor_type;location;lat;lon;timestamp;P1;durP1;ratioP1;P2;durP2;ratioP2
11010;SDS011;5558;42.702;23.178;2022-12-18T00:01:51;5.43;;;4.93;;
11010;SDS011;5558;42.702;23.178;2022-12-18T00:04:20;4.30;;;3.90;;
11010;SDS011;5558;42.702;23.178;2022-12-18T00:06:48;4.73;;;4.33;;
11010;SDS011;5558;42.702;23.178;2022-12-18T00:09:15;4.83;;;4.43;;
11010;SDS011;5558;42.702;23.178;2022-12-18T00:11:42;5.30;;;4.67;;
11010;SDS011;5558;42.702;23.178;2022-12-18T00:14:10;5.03;;;4.53;;
11010;SDS011;5558;42.702;23.178;2022-12-18T00:16:38;4.90;;;4.40;;
11010;SDS011;5558;42.702;23.178;2022-12-18T00:19:05;5.30;;;4.80;;
11010;SDS011;5558;42.702;23.178;2022-12-18T00:21:32;5.53;;;5.00;;
11010;SDS011;5558;42.702;23.178;2022-12-18T00:24:00;5.67;;;5.07;;
11010;SDS011;5558;42.702;23.178;2022-12-18T00:26:27;6.00;;;5.40;;
11010;SDS011;5558;42.702;23.178;2022-12-18T00:28:57;7.03;;;6.20;;
11010;SDS011;5558;42.702;23.178;2022-12-18T00:31:26;6.33;;;5.73;;
11010;SDS011;5558;42.702;23.178;2022-12-18T00:33:53;5.43;;;4.80;;
11010;SDS011;5558;42.702;23.178;2022-12-18T00:36:21;5.77;;;5.17;;
11010;SDS011;5558;42.702;23.178;2022-12-18T00:38:49;6.43;;;5.30;;
11010;SDS011;5558;42.702;23.178;2022-12-18T00:41:17;6.00;;;5.40;;
11010;SDS011;5558;42.702;23.178;2022-12-18T00:43:58;5.70;;;5.10;;
11010;SDS011;5558;42.702;23.178;2022-12-18T00:46:26;5.77;;;5.17;;
11010;SDS011;5558;42.702;23.178;2022-12-18T00:48:53;5.60;;;5.10;;
11010;SDS011;5558;42.702;23.178;2022-12-18T00:51:20;6.03;;;5.43;;
11010;SDS011;5558;42.702;23.178;2022-12-18T00:53:46;6.53;;;5.80;;
11010;SDS011;5558;42.702;23.178;2022-12-18T00:56:13;6.13;;;5.50;;
11010;SDS011;5558;42.702;23.178;2022-12-18T00:58:40;6.33;;;5.73;;
11010;SDS011;5558;42.702;23.178;2022-12-18T01:01:06;6.07;;;5.50;;
11010;SDS011;5558;42.702;23.178;2022-12-18T01:03:34;6.17;;;5.43;;
11010;SDS011;5558;42.702;23.178;2022-12-18T01:06:05;6.20;;;5.60;;
11010;SDS011;5558;42.702;23.178;2022-12-18T01:08:33;5.43;;;4.93;;
11010;SDS011;5558;42.702;23.178;2022-12-18T01:10:59;6.50;;;5.80;;
11010;SDS011;5558;42.702;23.178;2022-12-18T01:13:26;5.70;;;5.10;;
11010;SDS011;5558;42.702;23.178;2022-12-18T01:15:53;7.10;;;6.20;;
11010;SDS011;5558;42.702;23.178;2022-12-18T01:18:20;5.80;;;5.20;;
11010;SDS011;5558;42.702;23.178;2022-12-18T01:20:48;6.20;;;5.60;;
11010;SDS011;5558;42.702;23.178;2022-12-18T01:23:15;6.30;;;5.70;;
11010;SDS011;5558;42.702;23.178;2022-12-18T01:25:41;6.90;;;6.20;;
11010;SDS011;5558;42.702;23.178;2022-12-18T01:28:08;5.90;;;5.30;;
11010;SDS011;5558;42.702;23.178;2022-12-18T01:30:35;6.40;;;5.80;;
11010;SDS011;5558;42.702;23.178;2022-12-18T01:33:03;5.83;;;5.23;;
11010;SDS011;5558;42.702;23.178;2022-12-18T01:35:30;6.20;;;5.60;;
11010;SDS011;5558;42.702;23.178;2022-12-18T01:37:58;8.53;;;7.63;;
11010;SDS011;5558;42.702;23.178;2022-12-18T01:40:25;6.90;;;6.20;;
11010;SDS011;5558;42.702;23.178;2022-12-18T01:42:51;6.20;;;5.60;;
11010;SDS011;5558;42.702;23.178;2022-12-18T01:45:23;5.93;;;5.43;;
11010;SDS011;5558;42.702;23.178;2022-12-18T01:47:52;6.03;;;5.43;;
11010;SDS011;5558;42.702;23.178;2022-12-18T01:50:21;8.93;;;7.70;;
11010;SDS011;5558;42.702;23.178;2022-12-18T01:52:49;9.53;;;7.93;;
11010;SDS011;5558;42.702;23.178;2022-12-18T01:55:20;5.70;;;5.20;;
11010;SDS011;5558;42.702;23.178;2022-12-18T01:57:49;6.13;;;5.07;;
11010;SDS011;5558;42.702;23.178;2022-12-18T02:00:20;5.63;;;5.03;;
11010;SDS011;5558;42.702;23.178;2022-12-18T02:02:48;6.37;;;5.77;;
11010;SDS011;5558;42.702;23.178;2022-12-18T02:05:16;7.13;;;6.43;;
11010;SDS011;5558;42.702;23.178;2022-12-18T02:07:48;5.20;;;4.70;;
11010;SDS011;5558;42.702;23.178;2022-12-18T02:10:24;5.47;;;4.93;;
11010;SDS011;5558;42.702;23.178;2022-12-18T02:13:01;5.50;;;5.00;;
11010;SDS011;5558;42.702;23.178;2022-12-18T02:15:36;5.27;;;4.77;;
11010;SDS011;5558;42.702;23.178;2022-12-18T02:18:10;5.50;;;4.87;;
11010;SDS011;5558;42.702;23.178;2022-12-18T02:20:43;5.60;;;4.90;;
11010;SDS011;5558;42.702;23.178;2022-12-18T02:23:16;5.67;;;5.17;;
11010;SDS011;5558;42.702;23.178;2022-12-18T02:26:06;5.67;;;5.17;;
11010;SDS011;5558;42.702;23.178;2022-12-18T02:28:41;6.53;;;5.73;;
11010;SDS011;5558;42.702;23.178;2022-12-18T02:31:12;6.17;;;5.57;;
11010;SDS011;5558;42.702;23.178;2022-12-18T02:33:43;7.60;;;6.80;;
11010;SDS011;5558;42.702;23.178;2022-12-18T02:36:12;6.50;;;5.80;;
11010;SDS011;5558;42.702;23.178;2022-12-18T02:38:42;5.43;;;4.93;;
11010;SDS011;5558;42.702;23.178;2022-12-18T02:41:12;8.17;;;6.97;;
11010;SDS011;5558;42.702;23.178;2022-12-18T02:43:40;6.40;;;5.70;;
11010;SDS011;5558;42.702;23.178;2022-12-18T02:46:28;5.10;;;4.60;;
11010;SDS011;5558;42.702;23.178;2022-12-18T02:49:01;5.03;;;4.53;;
11010;SDS011;5558;42.702;23.178;2022-12-18T02:51:33;5.90;;;5.30;;
11010;SDS011;5558;42.702;23.178;2022-12-18T02:54:09;5.43;;;4.80;;
11010;SDS011;5558;42.702;23.178;2022-12-18T02:56:42;5.80;;;5.20;;
11010;SDS011;5558;42.702;23.178;2022-12-18T02:59:15;5.33;;;4.83;;
11010;SDS011;5558;42.702;23.178;2022-12-18T03:01:49;5.20;;;4.70;;
11010;SDS011;5558;42.702;23.178;2022-12-18T03:04:20;5.00;;;4.60;;
11010;SDS011;5558;42.702;23.178;2022-12-18T03:06:53;5.83;;;5.23;;
11010;SDS011;5558;42.702;23.178;2022-12-18T03:09:24;5.63;;;4.97;;
11010;SDS011;5558;42.702;23.178;2022-12-18T03:12:01;5.47;;;4.93;;
11010;SDS011;5558;42.702;23.178;2022-12-18T03:14:48;5.80;;;5.20;;
11010;SDS011;5558;42.702;23.178;2022-12-18T03:17:18;5.93;;;5.20;;
11010;SDS011;5558;42.702;23.178;2022-12-18T03:19:49;5.80;;;5.23;;
11010;SDS011;5558;42.702;23.178;2022-12-18T03:22:17;5.63;;;4.80;;
11010;SDS011;5558;42.702;23.178;2022-12-18T03:24:45;6.53;;;5.83;;
11010;SDS011;5558;42.702;23.178;2022-12-18T03:27:14;6.67;;;5.97;;
11010;SDS011;5558;42.702;23.178;2022-12-18T03:29:46;5.80;;;5.23;;
11010;SDS011;5558;42.702;23.178;2022-12-18T03:32:20;5.80;;;5.27;;
11010;SDS011;5558;42.702;23.178;2022-12-18T03:34:51;6.17;;;5.30;;
11010;SDS011;5558;42.702;23.178;2022-12-18T03:37:21;5.87;;;5.27;;
11010;SDS011;5558;42.702;23.178;2022-12-18T03:39:47;5.80;;;5.20;;
11010;SDS011;5558;42.702;23.178;2022-12-18T03:42:16;6.10;;;5.50;;
11010;SDS011;5558;42.702;23.178;2022-12-18T03:44:53;6.20;;;5.43;;
11010;SDS011;5558;42.702;23.178;2022-12-18T03:47:29;6.20;;;5.20;;
11010;SDS011;5558;42.702;23.178;2022-12-18T03:50:03;5.90;;;5.07;;
11010;SDS011;5558;42.702;23.178;2022-12-18T03:52:38;6.87;;;6.10;;
11010;SDS011;5558;42.702;23.178;2022-12-18T03:55:10;7.13;;;6.07;;
11010;SDS011;5558;42.702;23.178;2022-12-18T03:57:39;7.10;;;6.30;;
11010;SDS011;5558;42.702;23.178;2022-12-18T04:00:09;7.77;;;6.63;;
11010;SDS011;5558;42.702;23.178;2022-12-18T04:02:39;7.53;;;6.67;;
11010;SDS011;5558;42.702;23.178;2022-12-18T04:05:10;7.80;;;6.93;;
11010;SDS011;5558;42.702;23.178;2022-12-18T04:07:38;8.43;;;7.07;;
11010;SDS011;5558;42.702;23.178;2022-12-18T04:10:07;8.13;;;7.10;;
11010;SDS011;5558;42.702;23.178;2022-12-18T04:12:36;9.77;;;7.63;;
11010;SDS011;5558;42.702;23.178;2022-12-18T04:15:05;10.70;;;8.27;;
11010;SDS011;5558;42.702;23.178;2022-12-18T04:17:33;8.73;;;6.93;;
11010;SDS011;5558;42.702;23.178;2022-12-18T04:19:59;8.97;;;8.03;;
11010;SDS011;5558;42.702;23.178;2022-12-18T04:22:26;8.43;;;7.60;;
11010;SDS011;5558;42.702;23.178;2022-12-18T04:24:53;9.87;;;8.40;;
11010;SDS011;5558;42.702;23.178;2022-12-18T04:27:20;8.77;;;7.87;;
11010;SDS011;5558;42.702;23.178;2022-12-18T04:29:47;9.73;;;8.73;;
11010;SDS011;5558;42.702;23.178;2022-12-18T04:32:15;8.10;;;7.27;;
11010;SDS011;5558;42.702;23.178;2022-12-18T04:34:42;8.60;;;7.40;;
11010;SDS011;5558;42.702;23.178;2022-12-18T04:37:08;8.20;;;7.23;;
11010;SDS011;5558;42.702;23.178;2022-12-18T04:39:35;8.53;;;7.27;;
11010;SDS011;5558;42.702;23.178;2022-12-18T04:42:02;8.70;;;7.80;;
11010;SDS011;5558;42.702;23.178;2022-12-18T04:44:28;9.30;;;7.97;;
11010;SDS011;5558;42.702;23.178;2022-12-18T04:46:55;8.20;;;7.30;;
11010;SDS011;5558;42.702;23.178;2022-12-18T04:49:23;8.23;;;7.20;;
11010;SDS011;5558;42.702;23.178;2022-12-18T04:51:50;7.77;;;6.97;;
11010;SDS011;5558;42.702;23.178;2022-12-18T04:54:19;8.80;;;7.90;;
11010;SDS011;5558;42.702;23.178;2022-12-18T04:56:45;8.40;;;7.40;;
11010;SDS011;5558;42.702;23.178;2022-12-18T04:59:12;8.27;;;7.40;;
11010;SDS011;5558;42.702;23.178;2022-12-18T05:01:39;8.33;;;7.20;;
11010;SDS011;5558;42.702;23.178;2022-12-18T05:04:06;10.03;;;8.30;;
11010;SDS011;5558;42.702;23.178;2022-12-18T05:06:34;10.80;;;9.67;;
11010;SDS011;5558;42.702;23.178;2022-12-18T05:09:00;9.73;;;8.73;;
11010;SDS011;5558;42.702;23.178;2022-12-18T05:11:27;11.73;;;10.53;;
11010;SDS011;5558;42.702;23.178;2022-12-18T05:13:54;9.50;;;8.27;;
11010;SDS011;5558;42.702;23.178;2022-12-18T05:16:20;9.07;;;8.17;;
11010;SDS011;5558;42.702;23.178;2022-12-18T05:18:47;9.37;;;8.17;;
11010;SDS011;5558;42.702;23.178;2022-12-18T05:21:14;8.83;;;7.90;;
11010;SDS011;5558;42.702;23.178;2022-12-18T05:23:42;9.80;;;7.93;;
11010;SDS011;5558;42.702;23.178;2022-12-18T05:26:16;9.60;;;8.60;;
11010;SDS011;5558;42.702;23.178;2022-12-18T05:28:44;9.83;;;8.47;;
11010;SDS011;5558;42.702;23.178;2022-12-18T05:31:11;11.93;;;9.40;;
11010;SDS011;5558;42.702;23.178;2022-12-18T05:33:37;11.67;;;9.43;;
11010;SDS011;5558;42.702;23.178;2022-12-18T05:36:05;10.20;;;8.43;;
11010;SDS011;5558;42.702;23.178;2022-12-18T05:38:34;11.10;;;9.27;;
11010;SDS011;5558;42.702;23.178;2022-12-18T05:41:03;10.53;;;8.90;;
11010;SDS011;5558;42.702;23.178;2022-12-18T05:43:30;11.13;;;9.10;;
11010;SDS011;5558;42.702;23.178;2022-12-18T05:45:57;13.13;;;10.07;;
11010;SDS011;5558;42.702;23.178;2022-12-18T05:48:24;11.17;;;8.97;;
11010;SDS011;5558;42.702;23.178;2022-12-18T05:50:50;12.67;;;11.10;;
11010;SDS011;5558;42.702;23.178;2022-12-18T05:53:18;11.73;;;10.30;;
11010;SDS011;5558;42.702;23.178;2022-12-18T05:55:46;12.30;;;10.70;;
11010;SDS011;5558;42.702;23.178;2022-12-18T05:58:15;12.83;;;10.90;;
11010;SDS011;5558;42.702;23.178;2022-12-18T06:00:42;12.60;;;10.37;;
11010;SDS011;5558;42.702;23.178;2022-12-18T06:03:11;15.57;;;11.90;;
11010;SDS011;5558;42.702;23.178;2022-12-18T06:05:39;12.37;;;10.17;;
11010;SDS011;5558;42.702;23.178;2022-12-18T06:08:07;12.30;;;10.10;;
11010;SDS011;5558;42.702;23.178;2022-12-18T06:10:34;13.37;;;10.13;;
11010;SDS011;5558;42.702;23.178;2022-12-18T06:13:01;12.53;;;10.53;;
11010;SDS011;5558;42.702;23.178;2022-12-18T06:15:29;12.03;;;9.90;;
11010;SDS011;5558;42.702;23.178;2022-12-18T06:17:55;13.63;;;10.97;;
11010;SDS011;5558;42.702;23.178;2022-12-18T06:20:22;12.50;;;10.30;;
11010;SDS011;5558;42.702;23.178;2022-12-18T06:22:49;13.13;;;10.50;;
11010;SDS011;5558;42.702;23.178;2022-12-18T06:25:16;13.63;;;10.60;;
11010;SDS011;5558;42.702;23.178;2022-12-18T06:27:43;13.13;;;10.53;;
11010;SDS011;5558;42.702;23.178;2022-12-18T06:30:10;12.90;;;10.23;;
11010;SDS011;5558;42.702;23.178;2022-12-18T06:32:38;13.47;;;10.83;;
11010;SDS011;5558;42.702;23.178;2022-12-18T06:35:06;12.30;;;10.63;;
11010;SDS011;5558;42.702;23.178;2022-12-18T06:37:33;12.30;;;10.90;;
11010;SDS011;5558;42.702;23.178;2022-12-18T06:39:59;14.23;;;11.57;;
11010;SDS011;5558;42.702;23.178;2022-12-18T06:42:28;13.50;;;11.33;;
11010;SDS011;5558;42.702;23.178;2022-12-18T06:44:55;13.23;;;11.13;;
11010;SDS011;5558;42.702;23.178;2022-12-18T06:47:21;16.13;;;11.90;;
11010;SDS011;5558;42.702;23.178;2022-12-18T06:49:49;13.33;;;11.40;;
11010;SDS011;5558;42.702;23.178;2022-12-18T06:52:17;14.13;;;11.20;;
11010;SDS011;5558;42.702;23.178;2022-12-18T06:54:43;14.83;;;11.43;;
11010;SDS011;5558;42.702;23.178;2022-12-18T06:57:10;13.07;;;10.87;;
11010;SDS011;5558;42.702;23.178;2022-12-18T06:59:37;12.27;;;10.73;;
11010;SDS011;5558;42.702;23.178;2022-12-18T07:02:03;12.67;;;11.20;;
11010;SDS011;5558;42.702;23.178;2022-12-18T07:04:30;12.77;;;10.77;;
11010;SDS011;5558;42.702;23.178;2022-12-18T07:06:59;12.43;;;10.57;;
11010;SDS011;5558;42.702;23.178;2022-12-18T07:09:25;12.40;;;10.97;;
11010;SDS011;5558;42.702;23.178;2022-12-18T07:11:52;12.30;;;9.80;;
11010;SDS011;5558;42.702;23.178;2022-12-18T07:14:19;13.37;;;11.00;;
11010;SDS011;5558;42.702;23.178;2022-12-18T07:16:46;14.37;;;11.27;;
11010;SDS011;5558;42.702;23.178;2022-12-18T07:19:13;13.50;;;10.77;;
11010;SDS011;5558;42.702;23.178;2022-12-18T07:21:40;14.30;;;11.90;;
11010;SDS011;5558;42.702;23.178;2022-12-18T07:24:08;13.63;;;11.30;;
11010;SDS011;5558;42.702;23.178;2022-12-18T07:26:35;14.03;;;11.40;;
11010;SDS011;5558;42.702;23.178;2022-12-18T07:29:01;14.70;;;12.07;;
11010;SDS011;5558;42.702;23.178;2022-12-18T07:31:29;12.83;;;11.20;;
11010;SDS011;5558;42.702;23.178;2022-12-18T07:33:55;15.27;;;11.77;;
11010;SDS011;5558;42.702;23.178;2022-12-18T07:36:22;13.43;;;11.17;;
11010;SDS011;5558;42.702;23.178;2022-12-18T07:38:49;14.57;;;12.33;;
11010;SDS011;5558;42.702;23.178;2022-12-18T07:41:18;16.57;;;13.17;;
11010;SDS011;5558;42.702;23.178;2022-12-18T07:43:45;30.03;;;23.47;;
11010;SDS011;5558;42.702;23.178;2022-12-18T07:46:13;24.20;;;18.80;;
11010;SDS011;5558;42.702;23.178;2022-12-18T07:48:41;26.10;;;21.97;;
11010;SDS011;5558;42.702;23.178;2022-12-18T07:51:08;19.97;;;16.03;;
11010;SDS011;5558;42.702;23.178;2022-12-18T07:53:35;15.30;;;12.37;;
11010;SDS011;5558;42.702;23.178;2022-12-18T07:56:03;20.53;;;16.77;;
11010;SDS011;5558;42.702;23.178;2022-12-18T07:58:32;17.77;;;13.93;;
11010;SDS011;5558;42.702;23.178;2022-12-18T08:01:03;17.77;;;13.60;;
11010;SDS011;5558;42.702;23.178;2022-12-18T08:03:31;17.13;;;13.83;;
11010;SDS011;5558;42.702;23.178;2022-12-18T08:05:59;18.10;;;14.30;;
11010;SDS011;5558;42.702;23.178;2022-12-18T08:08:26;19.00;;;14.73;;
11010;SDS011;5558;42.702;23.178;2022-12-18T08:10:53;20.17;;;14.87;;
11010;SDS011;5558;42.702;23.178;2022-12-18T08:13:20;20.27;;;15.20;;
11010;SDS011;5558;42.702;23.178;2022-12-18T08:15:48;17.70;;;14.00;;
11010;SDS011;5558;42.702;23.178;2022-12-18T08:18:22;19.27;;;14.87;;
11010;SDS011;5558;42.702;23.178;2022-12-18T08:20:48;22.00;;;16.83;;
11010;SDS011;5558;42.702;23.178;2022-12-18T08:23:15;20.10;;;15.10;;
11010;SDS011;5558;42.702;23.178;2022-12-18T08:25:42;22.13;;;17.33;;
11010;SDS011;5558;42.702;23.178;2022-12-18T08:28:09;20.47;;;16.17;;
11010;SDS011;5558;42.702;23.178;2022-12-18T08:30:35;23.43;;;18.43;;
11010;SDS011;5558;42.702;23.178;2022-12-18T08:33:04;19.60;;;15.53;;
11010;SDS011;5558;42.702;23.178;2022-12-18T08:35:30;21.13;;;16.00;;
11010;SDS011;5558;42.702;23.178;2022-12-18T08:38:01;18.77;;;14.87;;
11010;SDS011;5558;42.702;23.178;2022-12-18T08:40:27;18.80;;;14.70;;
11010;SDS011;5558;42.702;23.178;2022-12-18T08:42:54;19.30;;;14.90;;
11010;SDS011;5558;42.702;23.178;2022-12-18T08:45:38;19.27;;;14.37;;
11010;SDS011;5558;42.702;23.178;2022-12-18T08:48:06;22.67;;;16.63;;
11010;SDS011;5558;42.702;23.178;2022-12-18T08:50:33;19.17;;;14.13;;
11010;SDS011;5558;42.702;23.178;2022-12-18T08:53:00;20.07;;;15.07;;
11010;SDS011;5558;42.702;23.178;2022-12-18T08:55:27;18.37;;;14.00;;
11010;SDS011;5558;42.702;23.178;2022-12-18T08:57:53;19.13;;;13.83;;
11010;SDS011;5558;42.702;23.178;2022-12-18T09:00:20;17.83;;;13.20;;
11010;SDS011;5558;42.702;23.178;2022-12-18T09:02:47;17.77;;;13.57;;
11010;SDS011;5558;42.702;23.178;2022-12-18T09:05:15;18.13;;;14.17;;
11010;SDS011;5558;42.702;23.178;2022-12-18T09:07:42;19.97;;;15.23;;
11010;SDS011;5558;42.702;23.178;2022-12-18T09:10:08;17.43;;;13.53;;
11010;SDS011;5558;42.702;23.178;2022-12-18T09:12:35;18.70;;;14.13;;
11010;SDS011;5558;42.702;23.178;2022-12-18T09:15:02;17.77;;;13.43;;
11010;SDS011;5558;42.702;23.178;2022-12-18T09:17:29;18.37;;;14.43;;
11010;SDS011;5558;42.702;23.178;2022-12-18T09:19:56;17.57;;;14.17;;
11010;SDS011;5558;42.702;23.178;2022-12-18T09:22:24;17.60;;;13.63;;
11010;SDS011;5558;42.702;23.178;2022-12-18T09:24:51;16.37;;;13.43;;
11010;SDS011;5558;42.702;23.178;2022-12-18T09:27:17;17.27;;;13.17;;
11010;SDS011;5558;42.702;23.178;2022-12-18T09:29:44;17.10;;;13.40;;
11010;SDS011;5558;42.702;23.178;2022-12-18T09:32:11;17.20;;;13.47;;
11010;SDS011;5558;42.702;23.178;2022-12-18T09:34:37;16.63;;;12.63;;
11010;SDS011;5558;42.702;23.178;2022-12-18T09:37:04;17.07;;;13.30;;
11010;SDS011;5558;42.702;23.178;2022-12-18T09:39:35;16.40;;;12.57;;
11010;SDS011;5558;42.702;23.178;2022-12-18T09:42:01;16.90;;;12.97;;
11010;SDS011;5558;42.702;23.178;2022-12-18T09:44:29;17.53;;;12.33;;
11010;SDS011;5558;42.702;23.178;2022-12-18T09:47:06;17.03;;;13.20;;
11010;SDS011;5558;42.702;23.178;2022-12-18T09:49:38;15.90;;;12.17;;
11010;SDS011;5558;42.702;23.178;2022-12-18T09:52:09;16.60;;;12.17;;
11010;SDS011;5558;42.702;23.178;2022-12-18T09:54:40;16.87;;;12.13;;
11010;SDS011;5558;42.702;23.178;2022-12-18T09:57:10;16.57;;;12.23;;
11010;SDS011;5558;42.702;23.178;2022-12-18T09:59:40;16.23;;;12.37;;
11010;SDS011;5558;42.702;23.178;2022-12-18T10:02:17;15.80;;;11.87;;
11010;SDS011;5558;42.702;23.178;2022-12-18T10:04:48;19.13;;;12.70;;
11010;SDS011;5558;42.702;23.178;2022-12-18T10:07:24;18.03;;;12.87;;
11010;SDS011;5558;42.702;23.178;2022-12-18T10:10:01;17.40;;;12.63;;
11010;SDS011;5558;42.702;23.178;2022-12-18T10:12:34;16.93;;;12.50;;
11010;SDS011;5558;42.702;23.178;2022-12-18T10:15:14;16.30;;;12.33;;
11010;SDS011;5558;42.702;23.178;2022-12-18T10:17:50;17.03;;;12.30;;
11010;SDS011;5558;42.702;23.178;2022-12-18T10:20:25;16.43;;;12.10;;
11010;SDS011;5558;42.702;23.178;2022-12-18T10:22:57;14.63;;;11.67;;
11010;SDS011;5558;42.702;23.178;2022-12-18T10:36:15;16.73;;;12.83;;
11010;SDS011;5558;42.702;23.178;2022-12-18T10:38:42;17.80;;;13.37;;
11010;SDS011;5558;42.702;23.178;2022-12-18T10:41:22;16.03;;;12.67;;
11010;SDS011;5558;42.702;23.178;2022-12-18T10:44:10;14.97;;;11.40;;
11010;SDS011;5558;42.702;23.178;2022-12-18T10:46:38;15.23;;;11.67;;
11010;SDS011;5558;42.702;23.178;2022-12-18T10:49:05;14.03;;;10.67;;
11010;SDS011;5558;42.702;23.178;2022-12-18T10:51:45;13.43;;;10.27;;
11010;SDS011;5558;42.702;23.178;2022-12-18T10:54:13;14.17;;;10.47;;
11010;SDS011;5558;42.702;23.178;2022-12-18T10:56:42;15.60;;;11.73;;
11010;SDS011;5558;42.702;23.178;2022-12-18T10:59:12;15.30;;;11.30;;
11010;SDS011;5558;42.702;23.178;2022-12-18T11:01:49;15.23;;;11.50;;
11010;SDS011;5558;42.702;23.178;2022-12-18T11:04:20;15.80;;;10.97;;
11010;SDS011;5558;42.702;23.178;2022-12-18T11:06:57;16.07;;;10.87;;
11010;SDS011;5558;42.702;23.178;2022-12-18T11:09:25;16.77;;;11.30;;
11010;SDS011;5558;42.702;23.178;2022-12-18T11:11:54;15.50;;;11.27;;
11010;SDS011;5558;42.702;23.178;2022-12-18T11:14:23;14.90;;;10.47;;
11010;SDS011;5558;42.702;23.178;2022-12-18T11:16:51;18.30;;;11.03;;
11010;SDS011;5558;42.702;23.178;2022-12-18T11:19:20;18.03;;;12.33;;
11010;SDS011;5558;42.702;23.178;2022-12-18T11:21:52;14.60;;;10.77;;
11010;SDS011;5558;42.702;23.178;2022-12-18T11:24:21;15.67;;;11.27;;
11010;SDS011;5558;42.702;23.178;2022-12-18T11:26:53;14.07;;;10.60;;
11010;SDS011;5558;42.702;23.178;2022-12-18T11:29:22;16.27;;;11.50;;
11010;SDS011;5558;42.702;23.178;2022-12-18T11:31:59;14.60;;;10.43;;
11010;SDS011;5558;42.702;23.178;2022-12-18T11:34:49;14.50;;;10.30;;
11010;SDS011;5558;42.702;23.178;2022-12-18T11:37:21;14.57;;;10.30;;
11010;SDS011;5558;42.702;23.178;2022-12-18T11:39:52;13.27;;;10.17;;
11010;SDS011;5558;42.702;23.178;2022-12-18T11:42:24;13.90;;;10.43;;
11010;SDS011;5558;42.702;23.178;2022-12-18T11:44:58;14.30;;;10.33;;
11010;SDS011;5558;42.702;23.178;2022-12-18T11:47:29;13.30;;;9.67;;
11010;SDS011;5558;42.702;23.178;2022-12-18T11:50:08;12.77;;;9.80;;
11010;SDS011;5558;42.702;23.178;2022-12-18T11:52:39;14.27;;;10.20;;
11010;SDS011;5558;42.702;23.178;2022-12-18T11:55:10;12.83;;;10.10;;
11010;SDS011;5558;42.702;23.178;2022-12-18T11:57:41;14.47;;;11.50;;
11010;SDS011;5558;42.702;23.178;2022-12-18T12:00:19;13.17;;;10.33;;
11010;SDS011;5558;42.702;23.178;2022-12-18T12:03:00;13.43;;;10.17;;
11010;SDS011;5558;42.702;23.178;2022-12-18T12:05:42;13.57;;;10.30;;
11010;SDS011;5558;42.702;23.178;2022-12-18T12:08:18;14.13;;;11.30;;
11010;SDS011;5558;42.702;23.178;2022-12-18T12:10:57;13.67;;;10.97;;
11010;SDS011;5558;42.702;23.178;2022-12-18T12:13:35;16.03;;;12.37;;
11010;SDS011;5558;42.702;23.178;2022-12-18T12:16:13;14.53;;;11.53;;
11010;SDS011;5558;42.702;23.178;2022-12-18T12:18:48;14.97;;;11.53;;
11010;SDS011;5558;42.702;23.178;2022-12-18T12:21:28;15.47;;;11.50;;
11010;SDS011;5558;42.702;23.178;2022-12-18T12:24:03;15.17;;;11.80;;
11010;SDS011;5558;42.702;23.178;2022-12-18T12:26:48;15.30;;;11.43;;
11010;SDS011;5558;42.702;23.178;2022-12-18T12:29:30;16.67;;;12.67;;
11010;SDS011;5558;42.702;23.178;2022-12-18T12:32:10;16.73;;;13.03;;
11010;SDS011;5558;42.702;23.178;2022-12-18T12:34:48;16.60;;;12.40;;
11010;SDS011;5558;42.702;23.178;2022-12-18T12:37:28;15.57;;;11.83;;
11010;SDS011;5558;42.702;23.178;2022-12-18T12:40:04;14.83;;;11.53;;
11010;SDS011;5558;42.702;23.178;2022-12-18T12:42:33;14.37;;;11.10;;
11010;SDS011;5558;42.702;23.178;2022-12-18T12:45:24;14.93;;;11.57;;
11010;SDS011;5558;42.702;23.178;2022-12-18T12:47:59;14.83;;;11.57;;
11010;SDS011;5558;42.702;23.178;2022-12-18T12:50:28;14.23;;;11.40;;
11010;SDS011;5558;42.702;23.178;2022-12-18T12:52:59;14.33;;;11.10;;
11010;SDS011;5558;42.702;23.178;2022-12-18T12:55:32;13.80;;;10.93;;
11010;SDS011;5558;42.702;23.178;2022-12-18T12:58:02;14.37;;;11.10;;
11010;SDS011;5558;42.702;23.178;2022-12-18T13:00:39;14.33;;;10.73;;
11010;SDS011;5558;42.702;23.178;2022-12-18T13:03:14;14.90;;;11.17;;
11010;SDS011;5558;42.702;23.178;2022-12-18T13:05:51;15.03;;;11.77;;
11010;SDS011;5558;42.702;23.178;2022-12-18T13:08:23;14.43;;;11.40;;
11010;SDS011;5558;42.702;23.178;2022-12-18T13:10:52;15.07;;;12.33;;
11010;SDS011;5558;42.702;23.178;2022-12-18T13:13:51;14.23;;;10.90;;
11010;SDS011;5558;42.702;23.178;2022-12-18T13:16:19;15.60;;;11.80;;
11010;SDS011;5558;42.702;23.178;2022-12-18T13:18:49;15.80;;;12.27;;
11010;SDS011;5558;42.702;23.178;2022-12-18T13:21:18;16.20;;;11.80;;
11010;SDS011;5558;42.702;23.178;2022-12-18T13:23:49;16.10;;;12.33;;
11010;SDS011;5558;42.702;23.178;2022-12-18T13:26:29;15.53;;;12.10;;
11010;SDS011;5558;42.702;23.178;2022-12-18T13:28:59;14.63;;;10.73;;
11010;SDS011;5558;42.702;23.178;2022-12-18T13:34:25;16.33;;;12.30;;
11010;SDS011;5558;42.702;23.178;2022-12-18T13:36:54;15.03;;;11.13;;
11010;SDS011;5558;42.702;23.178;2022-12-18T13:39:26;13.73;;;10.93;;
11010;SDS011;5558;42.702;23.178;2022-12-18T13:48:17;13.17;;;10.17;;
11010;SDS011;5558;42.702;23.178;2022-12-18T13:50:48;13.20;;;10.50;;
11010;SDS011;5558;42.702;23.178;2022-12-18T13:53:19;13.70;;;10.43;;
11010;SDS011;5558;42.702;23.178;2022-12-18T13:55:48;13.70;;;10.23;;
11010;SDS011;5558;42.702;23.178;2022-12-18T13:58:16;13.77;;;10.57;;
11010;SDS011;5558;42.702;23.178;2022-12-18T14:00:44;13.53;;;9.90;;
11010;SDS011;5558;42.702;23.178;2022-12-18T14:03:20;13.27;;;10.50;;
11010;SDS011;5558;42.702;23.178;2022-12-18T14:05:55;14.57;;;10.83;;
11010;SDS011;5558;42.702;23.178;2022-12-18T14:08:27;15.13;;;11.10;;
11010;SDS011;5558;42.702;23.178;2022-12-18T14:10:59;14.77;;;10.93;;
11010;SDS011;5558;42.702;23.178;2022-12-18T14:13:28;13.27;;;10.17;;
11010;SDS011;5558;42.702;23.178;2022-12-18T14:15:58;15.37;;;11.20;;
11010;SDS011;5558;42.702;23.178;2022-12-18T14:18:29;13.70;;;10.97;;
11010;SDS011;5558;42.702;23.178;2022-12-18T14:21:04;13.13;;;10.50;;
11010;SDS011;5558;42.702;23.178;2022-12-18T14:23:33;13.40;;;10.27;;
11010;SDS011;5558;42.702;23.178;2022-12-18T14:26:01;13.03;;;9.87;;
11010;SDS011;5558;42.702;23.178;2022-12-18T14:28:44;13.93;;;10.03;;
11010;SDS011;5558;42.702;23.178;2022-12-18T14:31:18;13.20;;;10.40;;
11010;SDS011;5558;42.702;23.178;2022-12-18T14:33:45;12.67;;;9.83;;
11010;SDS011;5558;42.702;23.178;2022-12-18T14:36:14;13.50;;;10.00;;
11010;SDS011;5558;42.702;23.178;2022-12-18T14:38:43;12.47;;;10.00;;
11010;SDS011;5558;42.702;23.178;2022-12-18T14:41:15;12.93;;;9.60;;
11010;SDS011;5558;42.702;23.178;2022-12-18T14:43:44;11.13;;;9.30;;
11010;SDS011;5558;42.702;23.178;2022-12-18T14:46:27;14.33;;;11.17;;
11010;SDS011;5558;42.702;23.178;2022-12-18T14:48:57;14.87;;;10.77;;
11010;SDS011;5558;42.702;23.178;2022-12-18T14:51:27;12.80;;;10.47;;
11010;SDS011;5558;42.702;23.178;2022-12-18T14:53:56;13.97;;;10.20;;
11010;SDS011;5558;42.702;23.178;2022-12-18T14:56:26;13.07;;;10.30;;
11010;SDS011;5558;42.702;23.178;2022-12-18T14:58:54;14.07;;;10.43;;
11010;SDS011;5558;42.702;23.178;2022-12-18T15:01:23;13.17;;;10.30;;
11010;SDS011;5558;42.702;23.178;2022-12-18T15:03:54;12.03;;;9.57;;
11010;SDS011;5558;42.702;23.178;2022-12-18T15:06:24;13.73;;;10.43;;
11010;SDS011;5558;42.702;23.178;2022-12-18T15:08:57;14.37;;;10.20;;